Time;durP1;ratioP1;P1;durP2;ratioP2;P2;SDS_P1;SDS_P2;PMS_P1;PMS_P2;Temp;Humidity;BMP_temperature;BMP_pressure;BME280_temperature;BME280_humidity;BME280_pressure;Samples;Min_cycle;Max_cycle;Signal;HPM_P1;HPM_P2
2023/05/21 00:00:49;;;;;;;76.10;9.27;;;;;;;;;;4962041;28;20568;-62
2023/05/21 00:03:15;;;;;;;47.80;7.75;;;;;;;;;;4935653;28;20144;-64
2023/05/21 00:05:43;;;;;;;73.63;9.48;;;;;;;;;;4964962;28;20059;-68
2023/05/21 00:08:10;;;;;;;53.13;8.25;;;;;;;;;;4952136;28;20513;-63
2023/05/21 00:10:37;;;;;;;52.90;8.27;;;;;;;;;;4963382;28;20051;-63
2023/05/21 00:13:03;;;;;;;57.83;8.40;;;;;;;;;;4965777;28;20051;-63
2023/05/21 00:15:30;;;;;;;71.43;9.77;;;;;;;;;;4963397;28;20054;-65
2023/05/21 00:17:56;;;;;;;37.42;7.13;;;;;;;;;;4964745;28;20054;-63
2023/05/21 00:20:23;;;;;;;36.90;7.03;;;;;;;;;;4966511;28;20058;-64
2023/05/21 00:22:50;;;;;;;62.03;8.60;;;;;;;;;;4968706;28;20042;-64
2023/05/21 00:25:17;;;;;;;47.72;7.50;;;;;;;;;;4962874;28;20062;-64
2023/05/21 00:27:43;;;;;;;84.57;9.38;;;;;;;;;;4964145;28;20415;-64
2023/05/21 00:30:10;;;;;;;34.75;6.75;;;;;;;;;;4945431;28;20047;-65
2023/05/21 00:32:37;;;;;;;61.25;8.23;;;;;;;;;;4954404;28;20501;-65
2023/05/21 00:35:04;;;;;;;60.45;9.02;;;;;;;;;;4955415;28;20046;-66
2023/05/21 00:37:33;;;;;;;86.15;9.68;;;;;;;;;;4949185;28;20097;-64
2023/05/21 00:40:10;;;;;;;60.20;8.30;;;;;;;;;;4946474;28;20073;-63
2023/05/21 00:42:40;;;;;;;66.53;8.57;;;;;;;;;;4942068;28;20118;-71
2023/05/21 00:45:07;;;;;;;46.10;7.30;;;;;;;;;;4943554;28;20039;-63
2023/05/21 00:47:34;;;;;;;54.70;8.30;;;;;;;;;;4963845;28;20050;-67
2023/05/21 00:50:02;;;;;;;61.55;8.52;;;;;;;;;;4961082;28;20054;-68
2023/05/21 00:52:29;;;;;;;49.05;7.60;;;;;;;;;;4968800;28;22107;-62
2023/05/21 00:54:56;;;;;;;79.15;9.82;;;;;;;;;;4960832;28;20070;-63
2023/05/21 00:57:25;;;;;;;48.80;7.43;;;;;;;;;;4961362;28;20407;-63
2023/05/21 00:59:52;;;;;;;50.17;7.50;;;;;;;;;;4939330;28;20465;-63
2023/05/21 01:02:19;;;;;;;46.83;7.18;;;;;;;;;;4960219;28;20103;-63
2023/05/21 01:04:46;;;;;;;62.90;8.68;;;;;;;;;;4960268;28;20115;-66
2023/05/21 01:07:13;;;;;;;36.00;6.72;;;;;;;;;;4953881;28;20078;-64
2023/05/21 01:09:41;;;;;;;80.38;9.98;;;;;;;;;;4947398;28;20138;-63
2023/05/21 01:12:08;;;;;;;67.93;8.73;;;;;;;;;;4966677;28;20042;-63
2023/05/21 01:14:36;;;;;;;48.35;7.93;;;;;;;;;;4959487;28;20138;-66
2023/05/21 01:17:04;;;;;;;38.95;6.72;;;;;;;;;;4951791;28;20042;-63
2023/05/21 01:19:31;;;;;;;68.68;8.82;;;;;;;;;;4961919;28;20051;-65
2023/05/21 01:22:05;;;;;;;40.10;7.50;;;;;;;;;;4956647;28;20063;-63
2023/05/21 01:24:32;;;;;;;36.42;7.72;;;;;;;;;;4933356;28;20063;-64
2023/05/21 01:27:00;;;;;;;61.60;8.27;;;;;;;;;;4954167;28;20049;-63
2023/05/21 01:29:27;;;;;;;42.75;7.13;;;;;;;;;;4963928;28;20059;-64
2023/05/21 01:32:05;;;;;;;45.03;7.07;;;;;;;;;;4962061;28;20051;-63
2023/05/21 01:34:39;;;;;;;40.33;6.85;;;;;;;;;;4947077;28;20046;-64
2023/05/21 01:37:13;;;;;;;62.65;9.00;;;;;;;;;;4946205;28;20138;-63
2023/05/21 01:39:42;;;;;;;98.22;10.23;;;;;;;;;;4926360;28;20074;-63
2023/05/21 01:42:09;;;;;;;46.85;7.63;;;;;;;;;;4944165;28;20051;-63
2023/05/21 01:44:36;;;;;;;52.00;8.43;;;;;;;;;;4947565;28;20062;-65
2023/05/21 01:47:03;;;;;;;76.75;9.32;;;;;;;;;;4952316;28;20114;-63
2023/05/21 01:49:30;;;;;;;42.95;8.07;;;;;;;;;;4942410;28;20374;-66
2023/05/21 01:51:57;;;;;;;63.30;8.25;;;;;;;;;;4960051;28;20055;-64
2023/05/21 01:54:23;;;;;;;50.70;7.78;;;;;;;;;;4945555;28;20416;-63
2023/05/21 01:56:50;;;;;;;42.03;7.05;;;;;;;;;;4962268;28;20047;-65
2023/05/21 01:59:17;;;;;;;68.78;9.50;;;;;;;;;;4944442;28;20050;-63
2023/05/21 02:01:43;;;;;;;168.15;16.00;;;;;;;;;;4974127;23;20055;-67
2023/05/21 02:04:10;;;;;;;89.50;10.13;;;;;;;;;;4943814;28;20098;-68
2023/05/21 02:06:38;;;;;;;90.93;11.77;;;;;;;;;;4943464;29;20075;-67
2023/05/21 02:09:05;;;;;;;67.20;9.05;;;;;;;;;;4939579;29;20047;-67
2023/05/21 02:11:33;;;;;;;102.22;11.73;;;;;;;;;;4940378;28;20051;-68
2023/05/21 02:14:00;;;;;;;69.82;9.88;;;;;;;;;;4924823;29;20055;-67
2023/05/21 02:16:26;;;;;;;71.78;9.65;;;;;;;;;;4944661;28;20047;-67
2023/05/21 02:18:56;;;;;;;93.68;11.10;;;;;;;;;;4924067;29;20051;-68
2023/05/21 02:21:23;;;;;;;67.18;8.70;;;;;;;;;;4942340;28;20075;-67
2023/05/21 02:23:49;;;;;;;69.47;9.43;;;;;;;;;;4949061;28;20059;-67
2023/05/21 02:26:16;;;;;;;99.55;11.93;;;;;;;;;;4940063;28;20043;-68
2023/05/21 02:28:43;;;;;;;63.42;9.38;;;;;;;;;;4941792;29;20126;-68
2023/05/21 02:31:11;;;;;;;89.50;11.18;;;;;;;;;;4929828;28;20119;-69
2023/05/21 02:33:38;;;;;;;60.28;9.13;;;;;;;;;;4944341;29;20043;-68
2023/05/21 02:36:11;;;;;;;56.45;8.82;;;;;;;;;;4922249;29;20612;-66
2023/05/21 02:38:42;;;;;;;61.30;8.98;;;;;;;;;;4928465;29;20075;-67
2023/05/21 02:41:12;;;;;;;73.45;9.63;;;;;;;;;;4925967;29;20135;-67
2023/05/21 02:43:39;;;;;;;77.60;9.90;;;;;;;;;;4930746;29;20150;-68
2023/05/21 02:46:06;;;;;;;115.25;11.25;;;;;;;;;;4939859;28;20047;-67
2023/05/21 02:48:34;;;;;;;71.88;8.63;;;;;;;;;;4927371;28;20055;-67
2023/05/21 02:51:00;;;;;;;58.60;8.07;;;;;;;;;;4945225;28;20059;-67
2023/05/21 02:53:27;;;;;;;38.00;7.13;;;;;;;;;;4940041;28;20051;-68
2023/05/21 02:55:55;;;;;;;95.75;10.05;;;;;;;;;;4956748;28;20127;-68
2023/05/21 02:58:24;;;;;;;55.95;7.40;;;;;;;;;;4941661;29;20044;-68
2023/05/21 03:00:51;;;;;;;109.65;11.48;;;;;;;;;;4932591;29;20058;-68
2023/05/21 03:03:18;;;;;;;66.55;7.68;;;;;;;;;;4945660;28;20077;-67
2023/05/21 03:05:45;;;;;;;81.88;8.80;;;;;;;;;;4959416;28;20061;-66
2023/05/21 03:08:12;;;;;;;55.97;7.57;;;;;;;;;;4965498;28;20502;-67
2023/05/21 03:10:38;;;;;;;72.72;8.80;;;;;;;;;;4964472;28;20049;-67
2023/05/21 03:13:05;;;;;;;79.93;9.13;;;;;;;;;;4947298;28;20043;-67
2023/05/21 03:15:37;;;;;;;73.93;8.73;;;;;;;;;;4963091;28;20860;-67
2023/05/21 03:18:04;;;;;;;63.40;8.40;;;;;;;;;;4964802;28;20043;-67
2023/05/21 03:20:32;;;;;;;58.97;8.02;;;;;;;;;;4961983;28;20520;-68
2023/05/21 03:22:59;;;;;;;76.93;9.57;;;;;;;;;;4967549;28;20130;-67
2023/05/21 03:25:26;;;;;;;91.43;10.13;;;;;;;;;;4950445;28;20057;-67
2023/05/21 03:27:53;;;;;;;100.95;10.73;;;;;;;;;;4947780;28;20263;-67
2023/05/21 03:30:39;;;;;;;60.83;7.82;;;;;;;;;;4960819;28;20457;-67
2023/05/21 03:33:24;;;;;;;50.22;7.07;;;;;;;;;;4965228;28;20063;-68
2023/05/21 03:35:51;;;;;;;55.17;7.25;;;;;;;;;;4965536;28;20390;-68
2023/05/21 03:38:18;;;;;;;68.20;8.38;;;;;;;;;;4945896;28;20404;-67
2023/05/21 03:40:44;;;;;;;47.92;6.97;;;;;;;;;;4953344;28;20042;-67
2023/05/21 03:43:11;;;;;;;52.10;6.80;;;;;;;;;;4946774;28;20049;-68
2023/05/21 03:45:38;;;;;;;56.15;7.35;;;;;;;;;;4961667;28;20109;-68
2023/05/21 03:48:28;;;;;;;54.33;7.70;;;;;;;;;;4970907;28;20057;-67
2023/05/21 03:50:55;;;;;;;64.97;8.60;;;;;;;;;;4963412;28;20473;-67
2023/05/21 03:53:22;;;;;;;52.30;6.60;;;;;;;;;;4943427;28;20070;-67
2023/05/21 03:55:53;;;;;;;102.78;9.82;;;;;;;;;;4963182;28;20039;-67
2023/05/21 03:58:22;;;;;;;;;;;;;;;;;;4944610;28;20047;-68
2023/05/21 04:00:49;;;;;;;75.60;8.27;;;;;;;;;;4962010;28;19926;-67
2023/05/21 04:03:16;;;;;;;94.80;9.35;;;;;;;;;;4948505;28;20078;-67
2023/05/21 04:05:43;;;;;;;56.70;7.10;;;;;;;;;;4944991;28;20058;-67
2023/05/21 04:08:11;;;;;;;54.05;6.32;;;;;;;;;;4945252;28;20115;-67
2023/05/21 04:10:37;;;;;;;67.03;8.60;;;;;;;;;;4947223;28;20118;-68
2023/05/21 04:13:04;;;;;;;106.30;10.18;;;;;;;;;;4925861;28;20134;-67
2023/05/21 04:15:31;;;;;;;50.45;6.75;;;;;;;;;;4942644;29;20394;-68
2023/05/21 04:17:59;;;;;;;95.85;9.38;;;;;;;;;;4928823;29;20054;-67
2023/05/21 04:20:25;;;;;;;47.03;6.68;;;;;;;;;;4951614;28;20061;-67
2023/05/21 04:22:52;;;;;;;70.22;8.02;;;;;;;;;;4942820;28;20103;-68
2023/05/21 04:25:20;;;;;;;90.32;9.35;;;;;;;;;;4931186;29;20054;-68
2023/05/21 04:27:47;;;;;;;79.63;8.40;;;;;;;;;;4941317;28;20512;-69
2023/05/21 04:30:14;;;;;;;46.72;6.10;;;;;;;;;;4926800;29;20055;-68
2023/05/21 04:32:44;;;;;;;86.47;8.88;;;;;;;;;;4947326;28;20480;-69
2023/05/21 04:35:13;;;;;;;83.38;8.95;;;;;;;;;;4929573;29;20394;-68
2023/05/21 04:37:44;;;;;;;50.00;6.18;;;;;;;;;;4944338;28;20050;-69
2023/05/21 04:40:16;;;;;;;61.80;7.18;;;;;;;;;;4944931;28;20472;-69
2023/05/21 04:42:45;;;;;;;47.28;6.03;;;;;;;;;;4944582;28;20058;-67
2023/05/21 04:45:12;;;;;;;70.47;7.45;;;;;;;;;;4944923;29;20094;-67
2023/05/21 04:47:41;;;;;;;73.03;7.45;;;;;;;;;;4939901;29;20051;-67
2023/05/21 04:50:09;;;;;;;27.38;4.47;;;;;;;;;;4927443;29;20438;-67
2023/05/21 04:52:36;;;;;;;64.65;7.25;;;;;;;;;;4943695;28;20043;-70
2023/05/21 04:55:03;;;;;;;58.20;6.68;;;;;;;;;;4919210;28;20531;-68
2023/05/21 04:57:29;;;;;;;35.78;4.95;;;;;;;;;;4928673;29;20048;-67
2023/05/21 04:59:58;;;;;;;72.57;6.90;;;;;;;;;;4941781;28;20055;-68
2023/05/21 05:02:25;;;;;;;52.30;5.82;;;;;;;;;;4940584;28;20066;-67
2023/05/21 05:04:52;;;;;;;42.35;5.22;;;;;;;;;;4968875;28;20046;-68
2023/05/21 05:07:19;;;;;;;61.05;6.50;;;;;;;;;;4945051;28;20125;-68
2023/05/21 05:09:46;;;;;;;71.00;7.18;;;;;;;;;;4964496;28;20047;-67
2023/05/21 05:12:13;;;;;;;27.02;4.50;;;;;;;;;;4931627;28;20051;-67
2023/05/21 05:14:39;;;;;;;55.17;6.30;;;;;;;;;;4961283;28;20047;-66
2023/05/21 05:17:08;;;;;;;50.05;5.47;;;;;;;;;;4964358;28;20073;-68
2023/05/21 05:19:35;;;;;;;48.05;5.50;;;;;;;;;;4979356;28;20133;-68
2023/05/21 05:22:02;;;;;;;59.95;6.20;;;;;;;;;;4964779;28;20064;-67
2023/05/21 05:24:29;;;;;;;47.08;5.22;;;;;;;;;;4939308;28;20146;-66
2023/05/21 05:26:56;;;;;;;26.02;4.25;;;;;;;;;;4963417;28;20039;-67
2023/05/21 05:29:22;;;;;;;75.15;7.35;;;;;;;;;;4966053;28;20164;-67
2023/05/21 05:31:49;;;;;;;61.70;6.90;;;;;;;;;;4961045;28;20135;-67
2023/05/21 05:34:16;;;;;;;46.97;6.05;;;;;;;;;;4951321;28;20038;-68
2023/05/21 05:36:43;;;;;;;43.50;5.75;;;;;;;;;;4953841;28;20054;-67
2023/05/21 05:39:09;;;;;;;70.57;6.95;;;;;;;;;;4962023;28;20079;-66
2023/05/21 05:41:36;;;;;;;46.83;5.50;;;;;;;;;;4959342;28;20446;-66
2023/05/21 05:44:04;;;;;;;58.83;6.15;;;;;;;;;;4944534;28;20047;-67
2023/05/21 05:46:34;;;;;;;65.68;6.70;;;;;;;;;;4962568;28;20047;-68
2023/05/21 05:49:01;;;;;;;96.82;8.93;;;;;;;;;;4945561;28;20062;-68
2023/05/21 05:51:29;;;;;;;47.42;5.68;;;;;;;;;;4951053;28;20049;-67
2023/05/21 05:53:55;;;;;;;35.75;4.65;;;;;;;;;;4964857;28;20053;-66
2023/05/21 05:56:22;;;;;;;54.13;6.28;;;;;;;;;;4961758;28;20047;-67
2023/05/21 05:58:49;;;;;;;42.15;5.05;;;;;;;;;;4961832;28;20043;-65
2023/05/21 06:01:17;;;;;;;47.53;5.72;;;;;;;;;;4948718;28;20133;-65
2023/05/21 06:03:44;;;;;;;43.90;5.28;;;;;;;;;;4951674;28;20090;-65
2023/05/21 06:06:14;;;;;;;63.97;7.07;;;;;;;;;;4963249;28;20566;-65
2023/05/21 06:08:41;;;;;;;54.05;6.00;;;;;;;;;;4946145;28;20672;-66
2023/05/21 06:11:08;;;;;;;54.10;5.80;;;;;;;;;;4948349;28;20737;-67
2023/05/21 06:13:35;;;;;;;54.25;5.88;;;;;;;;;;4960013;28;20568;-67
2023/05/21 06:16:03;;;;;;;55.22;6.13;;;;;;;;;;4967514;28;20059;-67
2023/05/21 06:18:29;;;;;;;36.30;5.13;;;;;;;;;;4959768;28;20047;-65
2023/05/21 06:20:56;;;;;;;32.72;4.72;;;;;;;;;;4945993;28;20052;-67
2023/05/21 06:23:23;;;;;;;32.67;4.72;;;;;;;;;;4951723;28;20497;-65
2023/05/21 06:25:51;;;;;;;34.28;4.40;;;;;;;;;;4966532;28;20520;-67
2023/05/21 06:28:18;;;;;;;49.70;5.18;;;;;;;;;;4957915;28;20130;-67
2023/05/21 06:30:46;;;;;;;47.40;4.93;;;;;;;;;;4962221;28;20055;-68
2023/05/21 06:33:14;;;;;;;24.13;4.05;;;;;;;;;;4934755;29;20402;-67
2023/05/21 06:35:41;;;;;;;53.20;5.88;;;;;;;;;;4950687;28;20485;-66
2023/05/21 06:38:09;;;;;;;52.95;5.47;;;;;;;;;;4947084;28;20173;-66
2023/05/21 06:40:35;;;;;;;68.88;6.85;;;;;;;;;;4963679;28;20097;-66
2023/05/21 06:43:03;;;;;;;71.05;6.63;;;;;;;;;;4956054;28;20137;-66
2023/05/21 06:46:09;;;;;;;37.63;4.95;;;;;;;;;;4879193;29;20045;-66
2023/05/21 06:48:38;;;;;;;51.85;5.53;;;;;;;;;;4893208;29;20053;-67
2023/05/21 06:51:04;;;;;;;37.35;4.80;;;;;;;;;;4875901;29;20148;-67
2023/05/21 06:53:31;;;;;;;38.97;4.68;;;;;;;;;;4876623;29;20061;-67
2023/05/21 06:55:58;;;;;;;49.85;5.78;;;;;;;;;;4876460;29;20040;-66
2023/05/21 06:58:33;;;;;;;25.45;4.07;;;;;;;;;;4876211;29;20045;-66
2023/05/21 07:01:00;;;;;;;97.35;8.68;;;;;;;;;;4876473;29;20052;-67
2023/05/21 07:03:35;;;;;;;21.60;3.58;;;;;;;;;;4891397;29;20057;-66
2023/05/21 07:06:01;;;;;;;93.65;8.18;;;;;;;;;;4876328;29;20053;-68
2023/05/21 07:08:28;;;;;;;43.05;4.68;;;;;;;;;;4860973;29;20053;-67
2023/05/21 07:10:55;;;;;;;61.28;6.13;;;;;;;;;;4876559;29;20132;-67
2023/05/21 07:13:22;;;;;;;32.17;4.75;;;;;;;;;;4876266;29;20064;-67
2023/05/21 07:15:48;;;;;;;60.03;6.03;;;;;;;;;;4865123;28;20046;-67
2023/05/21 07:18:15;;;;;;;25.30;4.53;;;;;;;;;;4953452;29;20050;-66
2023/05/21 07:20:43;;;;;;;52.38;5.78;;;;;;;;;;4967267;28;20047;-66
2023/05/21 07:23:12;;;;;;;40.97;5.03;;;;;;;;;;4947973;28;20053;-67
2023/05/21 07:25:39;;;;;;;55.67;5.57;;;;;;;;;;4964640;28;20085;-66
2023/05/21 07:28:06;;;;;;;40.30;5.05;;;;;;;;;;4967672;28;23228;-67
2023/05/21 07:30:34;;;;;;;39.60;4.97;;;;;;;;;;4947040;28;20119;-66
2023/05/21 07:33:02;;;;;;;56.03;6.00;;;;;;;;;;4946549;28;20489;-66
2023/05/21 07:35:29;;;;;;;36.25;4.20;;;;;;;;;;4967827;28;20062;-67
2023/05/21 07:37:56;;;;;;;56.35;5.30;;;;;;;;;;4968332;28;20039;-67
2023/05/21 07:40:22;;;;;;;66.07;6.30;;;;;;;;;;4935891;28;20094;-67
2023/05/21 07:42:49;;;;;;;59.53;5.57;;;;;;;;;;4965120;28;20054;-68
2023/05/21 07:45:17;;;;;;;40.40;5.00;;;;;;;;;;4962402;28;20099;-68
2023/05/21 07:47:45;;;;;;;57.47;5.63;;;;;;;;;;4967193;28;20039;-66
2023/05/21 07:50:13;;;;;;;52.97;5.70;;;;;;;;;;4965432;28;20050;-66
2023/05/21 07:52:40;;;;;;;51.03;5.32;;;;;;;;;;4945855;28;20062;-66
2023/05/21 07:55:07;;;;;;;48.53;5.55;;;;;;;;;;4966242;28;20047;-67
2023/05/21 07:57:35;;;;;;;45.33;4.88;;;;;;;;;;4962459;28;20565;-66
2023/05/21 08:00:12;;;;;;;40.22;4.72;;;;;;;;;;4965962;28;20059;-66
2023/05/21 08:02:47;;;;;;;37.33;4.03;;;;;;;;;;4951672;28;20082;-67
2023/05/21 08:05:17;;;;;;;39.75;4.85;;;;;;;;;;4964916;28;20661;-68
2023/05/21 08:07:45;;;;;;;30.60;3.90;;;;;;;;;;4947780;28;20039;-68
2023/05/21 08:10:12;;;;;;;31.80;4.15;;;;;;;;;;4956268;28;20061;-67
2023/05/21 08:12:39;;;;;;;31.00;4.18;;;;;;;;;;4968394;28;20047;-67
2023/05/21 08:15:07;;;;;;;36.30;4.18;;;;;;;;;;4954047;28;20504;-67
2023/05/21 08:17:39;;;;;;;84.47;7.43;;;;;;;;;;4954753;28;20468;-67
2023/05/21 08:20:07;;;;;;;39.17;3.67;;;;;;;;;;4957821;28;20054;-67
2023/05/21 08:22:36;;;;;;;34.60;4.20;;;;;;;;;;4964369;28;20043;-66
2023/05/21 08:25:03;;;;;;;67.32;6.10;;;;;;;;;;4970151;28;20051;-66
2023/05/21 08:27:30;;;;;;;36.88;4.10;;;;;;;;;;4943550;29;20050;-67
2023/05/21 08:29:57;;;;;;;28.92;3.67;;;;;;;;;;4960903;28;20054;-67
2023/05/21 08:32:25;;;;;;;23.33;3.25;;;;;;;;;;4934803;29;20043;-69
2023/05/21 08:34:53;;;;;;;33.65;3.85;;;;;;;;;;4943209;28;20134;-69
2023/05/21 08:37:43;;;;;;;62.38;5.78;;;;;;;;;;4963742;28;20129;-68
2023/05/21 08:40:36;;;;;;;41.65;4.22;;;;;;;;;;4930223;29;20476;-68
2023/05/21 08:43:04;;;;;;;104.30;8.52;;;;;;;;;;4927149;29;20092;-69
2023/05/21 08:45:43;;;;;;;68.40;6.45;;;;;;;;;;4919534;29;20040;-69
2023/05/21 08:48:14;;;;;;;63.15;6.28;;;;;;;;;;4931374;29;20047;-67
2023/05/21 08:50:42;;;;;;;18.65;2.90;;;;;;;;;;4931289;29;20058;-67
2023/05/21 08:53:15;;;;;;;15.65;2.85;;;;;;;;;;4928427;29;20043;-67
2023/05/21 08:55:56;;;;;;;45.92;4.38;;;;;;;;;;4929652;29;20134;-69
2023/05/21 08:58:32;;;;;;;48.72;5.03;;;;;;;;;;4916814;29;20048;-68
2023/05/21 09:01:07;;;;;;;67.72;6.15;;;;;;;;;;4938085;29;20059;-68
2023/05/21 09:04:20;;;;;;;61.70;6.65;;;;;;;;;;4936442;29;20202;-69
2023/05/21 09:07:06;;;;;;;85.45;7.45;;;;;;;;;;4932394;29;20066;-70
2023/05/21 09:10:11;;;;;;;63.88;5.35;;;;;;;;;;4921466;29;20146;-71
2023/05/21 09:13:11;;;;;;;114.88;11.02;;;;;;;;;;4930939;29;20525;-68
2023/05/21 09:15:54;;;;;;;73.00;7.82;;;;;;;;;;4930432;29;20095;-68
2023/05/21 09:18:37;;;;;;;35.13;3.90;;;;;;;;;;4950761;28;20532;-66
2023/05/21 09:21:27;;;;;;;27.10;3.83;;;;;;;;;;4968757;28;20090;-67
2023/05/21 09:24:14;;;;;;;59.63;5.57;;;;;;;;;;4949245;28;20051;-69
2023/05/21 09:26:42;;;;;;;62.50;6.00;;;;;;;;;;4946551;28;20058;-69
2023/05/21 09:29:12;;;;;;;106.63;9.90;;;;;;;;;;4949456;28;20504;-68
2023/05/21 09:31:43;;;;;;;111.60;9.00;;;;;;;;;;4943492;28;20053;-69
2023/05/21 09:34:15;;;;;;;73.00;6.03;;;;;;;;;;4960042;28;20055;-69
2023/05/21 09:36:44;;;;;;;87.43;7.83;;;;;;;;;;4944131;28;20054;-68
2023/05/21 09:39:15;;;;;;;66.57;5.75;;;;;;;;;;4961382;28;20102;-68
2023/05/21 09:41:43;;;;;;;78.68;6.95;;;;;;;;;;4958636;28;20047;-69
2023/05/21 09:44:10;;;;;;;75.78;6.40;;;;;;;;;;4960471;28;20051;-69
2023/05/21 09:46:40;;;;;;;131.30;10.13;;;;;;;;;;4961943;28;20051;-68
2023/05/21 09:49:25;;;;;;;121.05;9.13;;;;;;;;;;4958567;28;20070;-68
2023/05/21 09:51:56;;;;;;;116.13;11.70;;;;;;;;;;4942659;28;20129;-68
2023/05/21 09:54:23;;;;;;;72.05;8.60;;;;;;;;;;4962997;28;20050;-68
2023/05/21 09:56:52;;;;;;;68.68;8.35;;;;;;;;;;4964195;28;20162;-68
2023/05/21 09:59:20;;;;;;;72.85;7.88;;;;;;;;;;4958454;28;20062;-69
2023/05/21 10:01:51;;;;;;;93.85;9.50;;;;;;;;;;4942802;28;20167;-69
2023/05/21 10:04:19;;;;;;;41.67;5.38;;;;;;;;;;4960458;28;20050;-67
2023/05/21 10:06:46;;;;;;;42.78;4.35;;;;;;;;;;4965146;28;20047;-69
2023/05/21 10:09:14;;;;;;;71.15;6.30;;;;;;;;;;4945449;28;20098;-66
2023/05/21 10:11:42;;;;;;;85.30;7.03;;;;;;;;;;4964919;28;20166;-69
2023/05/21 10:14:18;;;;;;;65.05;5.70;;;;;;;;;;4963797;28;20401;-66
2023/05/21 10:16:46;;;;;;;25.60;3.67;;;;;;;;;;4958803;28;20039;-64
2023/05/21 10:19:14;;;;;;;72.82;7.07;;;;;;;;;;4951088;28;20083;-68
2023/05/21 10:21:41;;;;;;;42.45;4.43;;;;;;;;;;4959847;28;20103;-67
2023/05/21 10:24:08;;;;;;;28.27;3.45;;;;;;;;;;4959837;28;20039;-67
2023/05/21 10:26:35;;;;;;;38.92;4.45;;;;;;;;;;4961413;28;20062;-68
2023/05/21 10:29:01;;;;;;;36.90;4.03;;;;;;;;;;4965377;28;20035;-67
2023/05/21 10:31:28;;;;;;;70.63;6.43;;;;;;;;;;4962205;28;20397;-67
2023/05/21 10:33:55;;;;;;;82.78;6.65;;;;;;;;;;4961524;28;20079;-66
2023/05/21 10:36:22;;;;;;;60.92;5.70;;;;;;;;;;4958747;28;20043;-67
2023/05/21 10:38:49;;;;;;;45.13;4.70;;;;;;;;;;4960965;28;20055;-67
2023/05/21 10:41:17;;;;;;;61.28;5.70;;;;;;;;;;4963614;28;20047;-67
2023/05/21 10:43:59;;;;;;;103.82;8.23;;;;;;;;;;4963957;28;20042;-67
2023/05/21 10:46:32;;;;;;;75.68;6.32;;;;;;;;;;4961931;28;20046;-66
2023/05/21 10:49:17;;;;;;;109.00;8.98;;;;;;;;;;4961354;28;20034;-69
2023/05/21 10:51:44;;;;;;;53.95;5.10;;;;;;;;;;4959834;28;20818;-66
2023/05/21 10:54:11;;;;;;;78.00;7.07;;;;;;;;;;4963600;28;20047;-67
2023/05/21 10:56:40;;;;;;;64.60;5.43;;;;;;;;;;4957321;28;20126;-66
2023/05/21 10:59:17;;;;;;;90.45;7.63;;;;;;;;;;4957868;28;20079;-65
2023/05/21 11:01:44;;;;;;;78.13;6.78;;;;;;;;;;4962832;28;20116;-67
2023/05/21 11:04:11;;;;;;;78.47;6.82;;;;;;;;;;4960406;28;20038;-66
2023/05/21 11:06:37;;;;;;;45.03;4.30;;;;;;;;;;4961459;28;20054;-66
2023/05/21 11:09:14;;;;;;;92.25;7.57;;;;;;;;;;4966904;28;20041;-67
2023/05/21 11:11:44;;;;;;;71.80;6.40;;;;;;;;;;4956251;28;20718;-66
2023/05/21 11:14:34;;;;;;;61.22;5.57;;;;;;;;;;4963375;28;20480;-67
2023/05/21 11:17:02;;;;;;;80.53;6.90;;;;;;;;;;4960027;28;20035;-67
2023/05/21 11:19:36;;;;;;;65.40;5.93;;;;;;;;;;4961839;28;20523;-68
2023/05/21 11:22:07;;;;;;;85.32;7.20;;;;;;;;;;4961300;28;20405;-67
2023/05/21 11:24:38;;;;;;;36.78;3.50;;;;;;;;;;4943609;28;20043;-67
2023/05/21 11:27:05;;;;;;;84.35;6.88;;;;;;;;;;4960808;28;20119;-66
2023/05/21 11:29:39;;;;;;;55.67;4.93;;;;;;;;;;4965720;28;20404;-66
2023/05/21 11:32:09;;;;;;;89.20;7.55;;;;;;;;;;4963406;28;20143;-67
2023/05/21 11:34:38;;;;;;;55.78;5.38;;;;;;;;;;4964082;28;20049;-66
2023/05/21 11:37:17;;;;;;;129.45;10.43;;;;;;;;;;4961315;28;20042;-68
2023/05/21 11:39:44;;;;;;;73.50;6.78;;;;;;;;;;4966049;28;20039;-66
2023/05/21 11:42:11;;;;;;;63.83;5.05;;;;;;;;;;4961179;28;20081;-66
2023/05/21 11:44:42;;;;;;;55.83;5.15;;;;;;;;;;4968740;28;20046;-67
2023/05/21 11:47:13;;;;;;;127.80;8.73;;;;;;;;;;4949138;28;20489;-67
2023/05/21 11:49:41;;;;;;;58.97;6.35;;;;;;;;;;4965984;28;20453;-67
2023/05/21 11:52:08;;;;;;;64.72;5.32;;;;;;;;;;4963639;28;20046;-66
2023/05/21 11:54:49;;;;;;;55.03;5.10;;;;;;;;;;4965034;28;20051;-66
2023/05/21 11:57:17;;;;;;;96.80;7.15;;;;;;;;;;4945852;28;20043;-66
2023/05/21 11:59:45;;;;;;;79.57;7.53;;;;;;;;;;4964291;28;20078;-68
2023/05/21 12:02:16;;;;;;;63.30;6.18;;;;;;;;;;4961128;28;20445;-65
2023/05/21 12:04:47;;;;;;;47.35;4.47;;;;;;;;;;4967140;28;20488;-66
2023/05/21 12:07:16;;;;;;;55.42;5.03;;;;;;;;;;4962781;28;20057;-65
2023/05/21 12:09:44;;;;;;;89.82;7.22;;;;;;;;;;4965244;28;20042;-66
2023/05/21 12:12:15;;;;;;;26.88;3.53;;;;;;;;;;4963738;28;20110;-66
2023/05/21 12:14:46;;;;;;;40.53;4.30;;;;;;;;;;4965897;28;20054;-66
2023/05/21 12:17:17;;;;;;;44.17;4.45;;;;;;;;;;4961282;28;20118;-66
2023/05/21 12:19:44;;;;;;;97.82;8.32;;;;;;;;;;4965580;28;20049;-65
2023/05/21 12:22:11;;;;;;;73.72;6.70;;;;;;;;;;4963196;28;20477;-66
2023/05/21 12:24:38;;;;;;;64.13;5.47;;;;;;;;;;4964189;28;20488;-66
2023/05/21 12:27:09;;;;;;;86.75;6.72;;;;;;;;;;4963980;28;20057;-67
2023/05/21 12:29:39;;;;;;;127.97;10.88;;;;;;;;;;4963955;28;20781;-66
2023/05/21 12:32:07;;;;;;;60.25;5.30;;;;;;;;;;4962667;28;20063;-67
2023/05/21 12:34:43;;;;;;;82.68;7.22;;;;;;;;;;4950131;28;20177;-66
2023/05/21 12:37:23;;;;;;;86.60;7.25;;;;;;;;;;4962810;28;20058;-66
2023/05/21 12:39:50;;;;;;;54.88;4.38;;;;;;;;;;4964799;28;20070;-69
2023/05/21 12:42:33;;;;;;;28.83;4.20;;;;;;;;;;4968717;28;20045;-67
2023/05/21 12:45:00;;;;;;;119.10;9.48;;;;;;;;;;4962788;28;20055;-66
2023/05/21 12:47:27;;;;;;;55.92;5.75;;;;;;;;;;4966001;28;20046;-66
2023/05/21 12:49:56;;;;;;;48.53;4.68;;;;;;;;;;4961193;28;20097;-66
2023/05/21 12:52:23;;;;;;;82.47;6.55;;;;;;;;;;4964570;28;20106;-66
2023/05/21 12:54:51;;;;;;;26.65;3.28;;;;;;;;;;4962291;28;20129;-70
2023/05/21 12:57:22;;;;;;;37.50;3.78;;;;;;;;;;4963047;28;20079;-66
2023/05/21 12:59:55;;;;;;;114.15;8.50;;;;;;;;;;4962245;28;20057;-66
2023/05/21 13:02:23;;;;;;;45.50;4.65;;;;;;;;;;4968923;28;20059;-65
2023/05/21 13:04:57;;;;;;;41.33;4.95;;;;;;;;;;4962026;28;20051;-66
2023/05/21 13:07:25;;;;;;;35.30;3.97;;;;;;;;;;4967145;28;20081;-66
2023/05/21 13:09:52;;;;;;;32.42;4.38;;;;;;;;;;4963358;28;20103;-67
2023/05/21 13:12:20;;;;;;;83.32;7.20;;;;;;;;;;4965340;28;20512;-66
2023/05/21 13:14:47;;;;;;;60.85;6.63;;;;;;;;;;4960350;28;20043;-66
2023/05/21 13:17:14;;;;;;;20.38;2.67;;;;;;;;;;4965038;28;20069;-66
2023/05/21 13:19:41;;;;;;;57.85;5.05;;;;;;;;;;4961402;28;20039;-66
2023/05/21 13:22:09;;;;;;;85.25;6.90;;;;;;;;;;4960817;28;20047;-66
2023/05/21 13:24:37;;;;;;;36.08;4.13;;;;;;;;;;4964025;28;20455;-66
2023/05/21 13:27:03;;;;;;;36.08;4.00;;;;;;;;;;4963048;28;20043;-66
2023/05/21 13:29:30;;;;;;;43.55;4.15;;;;;;;;;;4963457;28;20125;-67
2023/05/21 13:31:56;;;;;;;33.30;4.18;;;;;;;;;;4964749;28;20047;-66
2023/05/21 13:34:24;;;;;;;101.88;8.32;;;;;;;;;;4962088;28;20079;-66
2023/05/21 13:36:51;;;;;;;42.53;4.38;;;;;;;;;;4962292;28;20053;-66
2023/05/21 13:39:18;;;;;;;30.13;3.60;;;;;;;;;;4965342;28;20039;-66
2023/05/21 13:41:46;;;;;;;71.53;6.03;;;;;;;;;;4964122;28;20054;-67
2023/05/21 13:44:12;;;;;;;39.25;4.50;;;;;;;;;;4965197;28;20119;-66
2023/05/21 13:46:39;;;;;;;50.35;4.65;;;;;;;;;;4963040;28;20043;-67
2023/05/21 13:49:06;;;;;;;92.13;7.13;;;;;;;;;;4961963;28;20046;-67
2023/05/21 13:51:33;;;;;;;54.28;5.00;;;;;;;;;;4961029;28;20141;-67
2023/05/21 13:54:04;;;;;;;50.53;5.20;;;;;;;;;;4961879;28;20103;-67
2023/05/21 13:56:32;;;;;;;71.10;6.53;;;;;;;;;;4958663;28;20473;-66
2023/05/21 13:59:00;;;;;;;64.43;6.28;;;;;;;;;;4964503;28;20046;-68
2023/05/21 14:01:26;;;;;;;90.28;8.43;;;;;;;;;;4964527;28;20047;-66
2023/05/21 14:03:53;;;;;;;73.95;7.57;;;;;;;;;;4964462;28;20047;-67
2023/05/21 14:06:20;;;;;;;79.20;7.78;;;;;;;;;;4961952;28;20098;-66
2023/05/21 14:08:47;;;;;;;57.47;7.18;;;;;;;;;;4959454;28;20051;-66
2023/05/21 14:11:13;;;;;;;117.88;9.93;;;;;;;;;;4959282;28;20036;-67
2023/05/21 14:13:40;;;;;;;66.07;9.18;;;;;;;;;;4963797;28;20074;-67
2023/05/21 14:16:06;;;;;;;93.82;8.13;;;;;;;;;;4943215;28;20051;-65
2023/05/21 14:18:33;;;;;;;58.70;5.65;;;;;;;;;;4962197;28;20043;-67
2023/05/21 14:21:00;;;;;;;48.47;5.30;;;;;;;;;;4965678;28;20535;-66
2023/05/21 14:23:27;;;;;;;68.63;6.05;;;;;;;;;;4959840;28;20118;-66
2023/05/21 14:25:54;;;;;;;80.32;7.10;;;;;;;;;;4964241;28;20046;-66
2023/05/21 14:28:20;;;;;;;47.85;4.60;;;;;;;;;;4951615;28;20055;-66
2023/05/21 14:30:47;;;;;;;69.97;6.25;;;;;;;;;;4961487;28;20474;-66
2023/05/21 14:33:15;;;;;;;53.42;5.35;;;;;;;;;;4963181;28;20481;-67
2023/05/21 14:35:42;;;;;;;63.78;5.55;;;;;;;;;;4965587;28;20043;-67
2023/05/21 14:38:09;;;;;;;76.20;6.65;;;;;;;;;;4960679;28;20039;-66
2023/05/21 14:40:36;;;;;;;70.05;6.25;;;;;;;;;;4945861;28;20046;-67